sensor_id;sensor_type;location;lat;lon;timestamp;pressure;altitude;pressure_sealevel;temperature;humidity
55291;BME280;41155;39.768;2.712;2023-05-09T00:00:06;101705.53;;;18.12;62.36
55291;BME280;41155;39.768;2.712;2023-05-09T00:02:35;101697.09;;;17.93;63.17
55291;BME280;41155;39.768;2.712;2023-05-09T00:05:03;101695.75;;;17.95;63.13
55291;BME280;41155;39.768;2.712;2023-05-09T00:07:29;101720.28;;;18.11;62.68
55291;BME280;41155;39.768;2.712;2023-05-09T00:09:55;101711.28;;;18.10;62.62
55291;BME280;41155;39.768;2.712;2023-05-09T00:12:21;101716.72;;;18.20;62.11
55291;BME280;41155;39.768;2.712;2023-05-09T00:14:48;101688.03;;;18.23;61.71
55291;BME280;41155;39.768;2.712;2023-05-09T00:17:16;101706.03;;;18.34;61.38
55291;BME280;41155;39.768;2.712;2023-05-09T00:19:43;101692.59;;;18.38;61.29
55291;BME280;41155;39.768;2.712;2023-05-09T00:22:09;101697.44;;;18.51;59.73
55291;BME280;41155;39.768;2.712;2023-05-09T00:24:37;101723.19;;;18.45;59.57
55291;BME280;41155;39.768;2.712;2023-05-09T00:27:02;101706.22;;;18.48;59.92
55291;BME280;41155;39.768;2.712;2023-05-09T00:29:28;101715.19;;;18.64;59.75
55291;BME280;41155;39.768;2.712;2023-05-09T00:31:56;101709.13;;;18.77;58.87
55291;BME280;41155;39.768;2.712;2023-05-09T00:34:22;101720.34;;;18.81;58.16
55291;BME280;41155;39.768;2.712;2023-05-09T00:36:47;101719.81;;;18.73;57.91
55291;BME280;41155;39.768;2.712;2023-05-09T00:39:14;101710.06;;;18.47;57.87
55291;BME280;41155;39.768;2.712;2023-05-09T00:41:39;101716.81;;;18.60;58.39
55291;BME280;41155;39.768;2.712;2023-05-09T00:44:04;101705.63;;;18.61;58.38
55291;BME280;41155;39.768;2.712;2023-05-09T00:46:30;101692.44;;;18.68;57.83
55291;BME280;41155;39.768;2.712;2023-05-09T00:48:56;101690.78;;;18.72;57.91
55291;BME280;41155;39.768;2.712;2023-05-09T00:51:22;101681.28;;;18.60;58.49
55291;BME280;41155;39.768;2.712;2023-05-09T00:53:47;101687.03;;;18.58;58.89
55291;BME280;41155;39.768;2.712;2023-05-09T00:56:14;101681.25;;;18.65;58.63
55291;BME280;41155;39.768;2.712;2023-05-09T00:58:40;101677.94;;;18.73;57.91
55291;BME280;41155;39.768;2.712;2023-05-09T01:01:06;101647.47;;;18.40;58.24
55291;BME280;41155;39.768;2.712;2023-05-09T01:03:32;101668.03;;;18.22;59.17
55291;BME280;41155;39.768;2.712;2023-05-09T01:06:31;101678.06;;;18.42;58.73
55291;BME280;41155;39.768;2.712;2023-05-09T01:11:37;101667.97;;;18.43;58.78
55291;BME280;41155;39.768;2.712;2023-05-09T01:17:11;101659.69;;;18.58;59.06
55291;BME280;41155;39.768;2.712;2023-05-09T01:22:45;101637.78;;;18.63;59.10
55291;BME280;41155;39.768;2.712;2023-05-09T01:30:16;101640.66;;;18.38;59.05
55291;BME280;41155;39.768;2.712;2023-05-09T01:32:45;101636.00;;;18.38;59.34
55291;BME280;41155;39.768;2.712;2023-05-09T01:35:14;101616.09;;;18.22;59.31
55291;BME280;41155;39.768;2.712;2023-05-09T01:37:42;101620.47;;;18.28;59.41
55291;BME280;41155;39.768;2.712;2023-05-09T01:40:15;101622.91;;;18.35;59.39
55291;BME280;41155;39.768;2.712;2023-05-09T01:42:44;101629.97;;;18.41;59.60
55291;BME280;41155;39.768;2.712;2023-05-09T01:45:12;101628.03;;;18.42;59.65
55291;BME280;41155;39.768;2.712;2023-05-09T01:47:39;101636.31;;;18.32;59.48
55291;BME280;41155;39.768;2.712;2023-05-09T01:50:06;101646.94;;;18.33;59.61
55291;BME280;41155;39.768;2.712;2023-05-09T01:52:34;101639.63;;;18.23;59.05
55291;BME280;41155;39.768;2.712;2023-05-09T01:55:01;101644.53;;;18.26;59.17
55291;BME280;41155;39.768;2.712;2023-05-09T01:57:28;101666.63;;;18.35;58.87
55291;BME280;41155;39.768;2.712;2023-05-09T01:59:55;101670.63;;;17.47;61.66
55291;BME280;41155;39.768;2.712;2023-05-09T02:02:24;101676.34;;;17.87;60.68
55291;BME280;41155;39.768;2.712;2023-05-09T02:04:50;101687.81;;;17.99;60.17
55291;BME280;41155;39.768;2.712;2023-05-09T02:07:18;101683.94;;;18.10;60.36
55291;BME280;41155;39.768;2.712;2023-05-09T02:09:45;101683.47;;;17.77;60.66
55291;BME280;41155;39.768;2.712;2023-05-09T02:12:12;101678.28;;;17.81;60.46
55291;BME280;41155;39.768;2.712;2023-05-09T02:14:37;101661.63;;;17.57;61.01
55291;BME280;41155;39.768;2.712;2023-05-09T02:17:03;101701.75;;;17.87;60.62
55291;BME280;41155;39.768;2.712;2023-05-09T02:19:33;101693.56;;;17.87;60.46
55291;BME280;41155;39.768;2.712;2023-05-09T02:21:59;101694.91;;;18.00;60.36
55291;BME280;41155;39.768;2.712;2023-05-09T02:24:25;101686.16;;;18.03;59.59
55291;BME280;41155;39.768;2.712;2023-05-09T02:26:51;101685.38;;;17.97;59.13
55291;BME280;41155;39.768;2.712;2023-05-09T02:29:18;101684.25;;;17.98;59.45
55291;BME280;41155;39.768;2.712;2023-05-09T02:31:46;101692.19;;;17.74;59.79
55291;BME280;41155;39.768;2.712;2023-05-09T02:34:12;101678.81;;;17.73;59.72
55291;BME280;41155;39.768;2.712;2023-05-09T02:36:38;101695.19;;;17.98;59.54
55291;BME280;41155;39.768;2.712;2023-05-09T02:39:05;101677.72;;;17.84;59.78
55291;BME280;41155;39.768;2.712;2023-05-09T02:41:31;101683.19;;;17.89;59.34
55291;BME280;41155;39.768;2.712;2023-05-09T02:43:56;101659.41;;;17.90;59.23
55291;BME280;41155;39.768;2.712;2023-05-09T02:46:22;101662.09;;;18.10;59.03
55291;BME280;41155;39.768;2.712;2023-05-09T02:48:47;101660.47;;;18.04;59.23
55291;BME280;41155;39.768;2.712;2023-05-09T02:51:13;101654.75;;;18.00;58.92
55291;BME280;41155;39.768;2.712;2023-05-09T02:53:39;101658.59;;;17.89;59.31
55291;BME280;41155;39.768;2.712;2023-05-09T02:56:04;101658.59;;;17.99;59.04
55291;BME280;41155;39.768;2.712;2023-05-09T02:58:32;101669.50;;;17.99;59.30
55291;BME280;41155;39.768;2.712;2023-05-09T03:00:58;101624.19;;;17.73;59.31
55291;BME280;41155;39.768;2.712;2023-05-09T03:03:23;101658.28;;;18.11;59.05
55291;BME280;41155;39.768;2.712;2023-05-09T03:05:49;101657.47;;;18.05;59.11
55291;BME280;41155;39.768;2.712;2023-05-09T03:08:15;101627.47;;;17.65;60.47
55291;BME280;41155;39.768;2.712;2023-05-09T03:10:40;101629.91;;;17.92;59.94
55291;BME280;41155;39.768;2.712;2023-05-09T03:13:07;101617.63;;;17.84;59.68
55291;BME280;41155;39.768;2.712;2023-05-09T03:15:32;101616.50;;;17.90;59.72
55291;BME280;41155;39.768;2.712;2023-05-09T03:17:58;101624.38;;;18.07;59.61
55291;BME280;41155;39.768;2.712;2023-05-09T03:20:25;101630.69;;;18.02;59.61
55291;BME280;41155;39.768;2.712;2023-05-09T03:22:51;101632.34;;;17.98;59.62
55291;BME280;41155;39.768;2.712;2023-05-09T03:25:16;101574.25;;;17.57;59.75
55291;BME280;41155;39.768;2.712;2023-05-09T03:27:42;101629.38;;;17.74;59.85
55291;BME280;41155;39.768;2.712;2023-05-09T03:30:07;101607.63;;;17.28;61.10
55291;BME280;41155;39.768;2.712;2023-05-09T03:32:33;101620.69;;;17.57;60.74
55291;BME280;41155;39.768;2.712;2023-05-09T03:34:58;101587.41;;;17.39;60.79
55291;BME280;41155;39.768;2.712;2023-05-09T03:37:24;101621.75;;;17.66;60.67
55291;BME280;41155;39.768;2.712;2023-05-09T03:39:49;101627.72;;;17.73;60.32
55291;BME280;41155;39.768;2.712;2023-05-09T03:42:15;101628.31;;;17.60;60.72
55291;BME280;41155;39.768;2.712;2023-05-09T03:44:40;101574.56;;;16.68;63.02
55291;BME280;41155;39.768;2.712;2023-05-09T03:47:06;101623.16;;;16.82;63.26
55291;BME280;41155;39.768;2.712;2023-05-09T03:49:31;101620.69;;;16.80;63.67
55291;BME280;41155;39.768;2.712;2023-05-09T03:51:57;101619.34;;;17.03;63.10
55291;BME280;41155;39.768;2.712;2023-05-09T03:54:22;101611.06;;;16.57;64.54
55291;BME280;41155;39.768;2.712;2023-05-09T03:56:48;101598.03;;;16.69;64.18
55291;BME280;41155;39.768;2.712;2023-05-09T03:59:13;101623.16;;;16.97;63.83
55291;BME280;41155;39.768;2.712;2023-05-09T04:01:40;101613.34;;;17.11;63.52
55291;BME280;41155;39.768;2.712;2023-05-09T04:04:06;101590.41;;;17.12;63.09
55291;BME280;41155;39.768;2.712;2023-05-09T04:06:32;101598.34;;;17.24;62.70
55291;BME280;41155;39.768;2.712;2023-05-09T04:09:01;101607.88;;;17.37;62.57
55291;BME280;41155;39.768;2.712;2023-05-09T04:11:26;101594.50;;;17.35;62.46
55291;BME280;41155;39.768;2.712;2023-05-09T04:13:53;101603.22;;;17.48;61.82
55291;BME280;41155;39.768;2.712;2023-05-09T04:16:18;101613.31;;;17.62;61.46
55291;BME280;41155;39.768;2.712;2023-05-09T04:18:44;101612.75;;;17.66;61.33
55291;BME280;41155;39.768;2.712;2023-05-09T04:21:09;101603.75;;;17.55;61.38
55291;BME280;41155;39.768;2.712;2023-05-09T04:23:35;101572.94;;;17.34;61.20
55291;BME280;41155;39.768;2.712;2023-05-09T04:26:00;101610.84;;;17.56;61.56
55291;BME280;41155;39.768;2.712;2023-05-09T04:28:26;101605.97;;;17.43;61.47
55291;BME280;41155;39.768;2.712;2023-05-09T04:30:51;101618.81;;;17.22;62.46
55291;BME280;41155;39.768;2.712;2023-05-09T04:33:17;101620.72;;;17.11;62.87
55291;BME280;41155;39.768;2.712;2023-05-09T04:35:42;101623.44;;;16.90;63.94
55291;BME280;41155;39.768;2.712;2023-05-09T04:38:08;101627.53;;;17.08;63.21
55291;BME280;41155;39.768;2.712;2023-05-09T04:40:33;101627.81;;;17.12;63.24
55291;BME280;41155;39.768;2.712;2023-05-09T04:42:59;101634.91;;;17.23;63.07
55291;BME280;41155;39.768;2.712;2023-05-09T04:45:24;101615.53;;;17.04;62.99
55291;BME280;41155;39.768;2.712;2023-05-09T04:47:50;101618.47;;;16.72;64.29
55291;BME280;41155;39.768;2.712;2023-05-09T04:50:15;101609.81;;;16.90;64.03
55291;BME280;41155;39.768;2.712;2023-05-09T04:52:41;101613.06;;;17.03;63.37
55291;BME280;41155;39.768;2.712;2023-05-09T04:55:06;101615.53;;;17.14;63.27
55291;BME280;41155;39.768;2.712;2023-05-09T04:57:32;101614.69;;;17.04;63.11
55291;BME280;41155;39.768;2.712;2023-05-09T04:59:57;101621.81;;;17.20;62.94
55291;BME280;41155;39.768;2.712;2023-05-09T05:02:23;101623.16;;;17.17;62.83
55291;BME280;41155;39.768;2.712;2023-05-09T05:04:50;101624.81;;;17.29;62.81
55291;BME280;41155;39.768;2.712;2023-05-09T05:07:15;101626.69;;;17.38;62.43
55291;BME280;41155;39.768;2.712;2023-05-09T05:09:41;101625.88;;;17.43;62.37
55291;BME280;41155;39.768;2.712;2023-05-09T05:12:06;101580.59;;;17.27;61.92
55291;BME280;41155;39.768;2.712;2023-05-09T05:14:33;101606.47;;;17.50;61.98
55291;BME280;41155;39.768;2.712;2023-05-09T05:16:58;101594.47;;;17.51;62.00
55291;BME280;41155;39.768;2.712;2023-05-09T05:19:24;101603.69;;;17.75;61.92
55291;BME280;41155;39.768;2.712;2023-05-09T05:21:49;101591.41;;;17.73;61.49
55291;BME280;41155;39.768;2.712;2023-05-09T05:24:15;101602.91;;;17.85;61.28
55291;BME280;41155;39.768;2.712;2023-05-09T05:26:40;101594.16;;;17.78;61.47
55291;BME280;41155;39.768;2.712;2023-05-09T05:29:06;101600.44;;;17.68;61.67
55291;BME280;41155;39.768;2.712;2023-05-09T05:31:31;101626.06;;;17.93;61.18
55291;BME280;41155;39.768;2.712;2023-05-09T05:33:57;101624.44;;;17.97;61.05
55291;BME280;41155;39.768;2.712;2023-05-09T05:36:22;101606.94;;;17.93;60.85
55291;BME280;41155;39.768;2.712;2023-05-09T05:38:48;101636.97;;;18.08;60.82
55291;BME280;41155;39.768;2.712;2023-05-09T05:41:13;101640.22;;;18.05;60.89
55291;BME280;41155;39.768;2.712;2023-05-09T05:43:39;101646.22;;;18.12;60.54
55291;BME280;41155;39.768;2.712;2023-05-09T05:46:05;101634.25;;;18.03;60.70
55291;BME280;41155;39.768;2.712;2023-05-09T05:48:30;101648.13;;;18.17;60.60
55291;BME280;41155;39.768;2.712;2023-05-09T05:50:56;101634.75;;;18.10;60.21
55291;BME280;41155;39.768;2.712;2023-05-09T05:53:21;101641.50;;;18.33;59.52
55291;BME280;41155;39.768;2.712;2023-05-09T05:55:47;101649.09;;;18.46;59.52
55291;BME280;41155;39.768;2.712;2023-05-09T05:58:13;101659.22;;;18.41;59.62
55291;BME280;41155;39.768;2.712;2023-05-09T06:00:39;101663.03;;;18.40;60.06
55291;BME280;41155;39.768;2.712;2023-05-09T06:03:04;101643.97;;;18.29;59.73
55291;BME280;41155;39.768;2.712;2023-05-09T06:05:30;101664.06;;;18.54;59.38
55291;BME280;41155;39.768;2.712;2023-05-09T06:07:55;101654.31;;;18.38;59.86
55291;BME280;41155;39.768;2.712;2023-05-09T06:10:21;101645.56;;;18.36;59.91
55291;BME280;41155;39.768;2.712;2023-05-09T06:12:46;101678.84;;;18.58;59.83
55291;BME280;41155;39.768;2.712;2023-05-09T06:15:12;101676.59;;;18.76;59.35
55291;BME280;41155;39.768;2.712;2023-05-09T06:17:37;101659.03;;;18.82;59.38
55291;BME280;41155;39.768;2.712;2023-05-09T06:20:04;101654.38;;;18.82;59.50
55291;BME280;41155;39.768;2.712;2023-05-09T06:22:29;101657.44;;;18.76;60.05
55291;BME280;41155;39.768;2.712;2023-05-09T06:24:55;101645.03;;;18.88;60.20
55291;BME280;41155;39.768;2.712;2023-05-09T06:27:20;101640.06;;;18.95;60.08
55291;BME280;41155;39.768;2.712;2023-05-09T06:29:46;101639.97;;;19.06;59.39
55291;BME280;41155;39.768;2.712;2023-05-09T06:32:11;101622.13;;;19.13;59.39
55291;BME280;41155;39.768;2.712;2023-05-09T06:34:37;101609.41;;;19.28;58.76
55291;BME280;41155;39.768;2.712;2023-05-09T06:37:02;101597.13;;;19.49;57.68
55291;BME280;41155;39.768;2.712;2023-05-09T06:39:28;101552.84;;;19.42;56.96
55291;BME280;41155;39.768;2.712;2023-05-09T06:41:53;101581.78;;;19.77;57.03
55291;BME280;41155;39.768;2.712;2023-05-09T06:44:19;101562.97;;;19.71;57.04
55291;BME280;41155;39.768;2.712;2023-05-09T06:46:44;101567.41;;;19.91;56.41
55291;BME280;41155;39.768;2.712;2023-05-09T06:49:10;101551.75;;;19.91;56.35
55291;BME280;41155;39.768;2.712;2023-05-09T06:51:37;101556.59;;;19.99;55.83
55291;BME280;41155;39.768;2.712;2023-05-09T06:54:03;101574.31;;;20.26;55.75
55291;BME280;41155;39.768;2.712;2023-05-09T06:56:28;101577.28;;;20.29;55.82
55291;BME280;41155;39.768;2.712;2023-05-09T06:58:54;101560.38;;;20.41;54.80
55291;BME280;41155;39.768;2.712;2023-05-09T07:01:19;101572.03;;;20.71;54.05
55291;BME280;41155;39.768;2.712;2023-05-09T07:03:45;101558.22;;;20.76;54.07
55291;BME280;41155;39.768;2.712;2023-05-09T07:06:11;101573.34;;;20.92;53.75
55291;BME280;41155;39.768;2.712;2023-05-09T07:08:37;101532.28;;;20.68;53.95
55291;BME280;41155;39.768;2.712;2023-05-09T07:11:03;101576.00;;;20.97;53.96
55291;BME280;41155;39.768;2.712;2023-05-09T07:13:28;101575.13;;;21.16;53.31
55291;BME280;41155;39.768;2.712;2023-05-09T07:15:54;101572.72;;;21.28;53.23
55291;BME280;41155;39.768;2.712;2023-05-09T07:18:20;101588.66;;;21.45;53.65
55291;BME280;41155;39.768;2.712;2023-05-09T07:20:45;101585.91;;;21.59;53.21
55291;BME280;41155;39.768;2.712;2023-05-09T07:23:11;101572.19;;;21.59;53.53
55291;BME280;41155;39.768;2.712;2023-05-09T07:25:36;101579.81;;;21.76;52.71
55291;BME280;41155;39.768;2.712;2023-05-09T07:28:01;101568.22;;;21.79;52.22
55291;BME280;41155;39.768;2.712;2023-05-09T07:30:27;101572.38;;;21.90;51.13
55291;BME280;41155;39.768;2.712;2023-05-09T07:32:52;101559.03;;;21.83;49.38
55291;BME280;41155;39.768;2.712;2023-05-09T07:35:18;101561.41;;;22.12;49.39
55291;BME280;41155;39.768;2.712;2023-05-09T07:37:44;101551.84;;;22.10;49.79
55291;BME280;41155;39.768;2.712;2023-05-09T07:40:09;101537.63;;;22.22;48.99
55291;BME280;41155;39.768;2.712;2023-05-09T07:42:35;101539.91;;;22.42;48.47
55291;BME280;41155;39.768;2.712;2023-05-09T07:45:01;101523.94;;;22.30;48.31
55291;BME280;41155;39.768;2.712;2023-05-09T07:47:28;101538.09;;;22.60;48.41
55291;BME280;41155;39.768;2.712;2023-05-09T07:49:54;101538.22;;;22.77;48.39
55291;BME280;41155;39.768;2.712;2023-05-09T07:52:19;101535.81;;;22.85;48.20
55291;BME280;41155;39.768;2.712;2023-05-09T07:54:45;101502.78;;;22.85;47.17
55291;BME280;41155;39.768;2.712;2023-05-09T07:57:10;101508.53;;;22.97;46.00
55291;BME280;41155;39.768;2.712;2023-05-09T07:59:36;101504.88;;;23.10;45.70
55291;BME280;41155;39.768;2.712;2023-05-09T08:02:02;101499.72;;;23.09;44.55
55291;BME280;41155;39.768;2.712;2023-05-09T08:04:27;101510.44;;;23.19;44.01
55291;BME280;41155;39.768;2.712;2023-05-09T08:06:53;101466.50;;;23.14;43.48
55291;BME280;41155;39.768;2.712;2023-05-09T08:09:18;101487.38;;;23.55;43.19
55291;BME280;41155;39.768;2.712;2023-05-09T08:11:44;101501.41;;;23.76;42.61
55291;BME280;41155;39.768;2.712;2023-05-09T08:14:09;101489.41;;;23.80;42.10
55291;BME280;41155;39.768;2.712;2023-05-09T08:16:35;101488.31;;;24.07;40.89
55291;BME280;41155;39.768;2.712;2023-05-09T08:19:01;101496.59;;;24.25;39.71
55291;BME280;41155;39.768;2.712;2023-05-09T08:21:26;101497.25;;;24.39;39.75
55291;BME280;41155;39.768;2.712;2023-05-09T08:23:52;101488.97;;;24.39;39.97
55291;BME280;41155;39.768;2.712;2023-05-09T08:26:21;101499.34;;;24.60;40.49
55291;BME280;41155;39.768;2.712;2023-05-09T08:28:47;101492.81;;;24.73;40.55
55291;BME280;41155;39.768;2.712;2023-05-09T08:31:13;101489.34;;;24.93;39.57
55291;BME280;41155;39.768;2.712;2023-05-09T08:33:39;101494.06;;;24.93;40.54
55291;BME280;41155;39.768;2.712;2023-05-09T08:36:05;101502.31;;;25.01;39.88
55291;BME280;41155;39.768;2.712;2023-05-09T08:38:30;101516.44;;;25.17;39.19
55291;BME280;41155;39.768;2.712;2023-05-09T08:41:00;101499.06;;;25.17;39.19
55291;BME280;41155;39.768;2.712;2023-05-09T08:43:27;101511.13;;;25.42;39.04
55291;BME280;41155;39.768;2.712;2023-05-09T08:45:58;101504.19;;;25.36;38.73
55291;BME280;41155;39.768;2.712;2023-05-09T08:48:27;101511.16;;;25.33;38.14
55291;BME280;41155;39.768;2.712;2023-05-09T08:50:54;101504.19;;;25.36;38.19
55291;BME280;41155;39.768;2.712;2023-05-09T08:53:20;101504.88;;;25.24;37.94
55291;BME280;41155;39.768;2.712;2023-05-09T08:55:48;101508.56;;;25.37;38.38
55291;BME280;41155;39.768;2.712;2023-05-09T08:58:14;101501.28;;;25.32;38.30
55291;BME280;41155;39.768;2.712;2023-05-09T09:00:41;101502.66;;;25.47;37.55
55291;BME280;41155;39.768;2.712;2023-05-09T09:03:07;101516.41;;;25.26;36.96
55291;BME280;41155;39.768;2.712;2023-05-09T09:05:36;101517.88;;;25.23;37.10
55291;BME280;41155;39.768;2.712;2023-05-09T09:08:03;101512.66;;;25.31;36.55
55291;BME280;41155;39.768;2.712;2023-05-09T09:10:31;101504.28;;;25.48;36.16
55291;BME280;41155;39.768;2.712;2023-05-09T09:12:58;101525.88;;;25.55;36.35
55291;BME280;41155;39.768;2.712;2023-05-09T09:15:27;101524.09;;;25.80;35.98
55291;BME280;41155;39.768;2.712;2023-05-09T09:17:54;101532.38;;;25.88;35.56
55291;BME280;41155;39.768;2.712;2023-05-09T09:20:24;101527.25;;;25.69;35.59
55291;BME280;41155;39.768;2.712;2023-05-09T09:22:53;101535.69;;;25.73;35.07
55291;BME280;41155;39.768;2.712;2023-05-09T09:25:20;101531.03;;;25.65;35.40
55291;BME280;41155;39.768;2.712;2023-05-09T09:27:45;101545.53;;;25.91;35.08
55291;BME280;41155;39.768;2.712;2023-05-09T09:30:11;101537.44;;;25.86;34.57
55291;BME280;41155;39.768;2.712;2023-05-09T09:32:37;101544.97;;;26.07;34.57
55291;BME280;41155;39.768;2.712;2023-05-09T09:35:08;101523.81;;;26.02;34.66
55291;BME280;41155;39.768;2.712;2023-05-09T09:37:34;101511.94;;;26.02;35.00
55291;BME280;41155;39.768;2.712;2023-05-09T09:40:00;101526.09;;;26.00;34.15
55291;BME280;41155;39.768;2.712;2023-05-09T09:42:26;101502.22;;;25.96;34.43
55291;BME280;41155;39.768;2.712;2023-05-09T09:45:01;101530.16;;;26.45;34.13
55291;BME280;41155;39.768;2.712;2023-05-09T09:47:31;101527.72;;;26.64;34.04
55291;BME280;41155;39.768;2.712;2023-05-09T09:49:56;101523.72;;;26.74;34.01
55291;BME280;41155;39.768;2.712;2023-05-09T09:52:23;101500.59;;;26.70;33.34
55291;BME280;41155;39.768;2.712;2023-05-09T09:54:54;101487.94;;;26.81;33.11
55291;BME280;41155;39.768;2.712;2023-05-09T09:57:36;101491.69;;;26.97;33.04
55291;BME280;41155;39.768;2.712;2023-05-09T10:00:06;101490.19;;;27.00;32.79
55291;BME280;41155;39.768;2.712;2023-05-09T10:02:32;101478.72;;;26.89;32.92
55291;BME280;41155;39.768;2.712;2023-05-09T10:05:07;101482.81;;;27.16;32.20
55291;BME280;41155;39.768;2.712;2023-05-09T10:07:34;101484.13;;;27.31;32.38
55291;BME280;41155;39.768;2.712;2023-05-09T10:10:02;101435.94;;;27.23;32.26
55291;BME280;41155;39.768;2.712;2023-05-09T10:12:32;101451.28;;;27.33;32.30
55291;BME280;41155;39.768;2.712;2023-05-09T10:15:00;101433.03;;;27.44;32.37
55291;BME280;41155;39.768;2.712;2023-05-09T10:17:27;101467.91;;;27.70;32.01
55291;BME280;41155;39.768;2.712;2023-05-09T10:19:55;101475.38;;;27.94;32.15
55291;BME280;41155;39.768;2.712;2023-05-09T10:22:25;101468.13;;;27.89;32.06
55291;BME280;41155;39.768;2.712;2023-05-09T10:25:04;101476.03;;;28.03;31.29
55291;BME280;41155;39.768;2.712;2023-05-09T10:27:35;101453.78;;;27.87;31.09
55291;BME280;41155;39.768;2.712;2023-05-09T10:30:11;101460.13;;;27.88;31.76
55291;BME280;41155;39.768;2.712;2023-05-09T10:35:16;101462.31;;;27.94;31.47
55291;BME280;41155;39.768;2.712;2023-05-09T10:37:44;101455.94;;;27.94;31.92
55291;BME280;41155;39.768;2.712;2023-05-09T10:40:10;101443.72;;;27.83;31.79
55291;BME280;41155;39.768;2.712;2023-05-09T10:42:43;101440.25;;;27.73;31.62
55291;BME280;41155;39.768;2.712;2023-05-09T10:45:12;101445.50;;;27.63;31.56
55291;BME280;41155;39.768;2.712;2023-05-09T10:47:39;101439.81;;;27.71;31.71
55291;BME280;41155;39.768;2.712;2023-05-09T10:50:07;101429.94;;;27.74;31.73
55291;BME280;41155;39.768;2.712;2023-05-09T10:52:33;101420.66;;;27.42;31.06
55291;BME280;41155;39.768;2.712;2023-05-09T10:55:00;101433.81;;;27.45;31.90
55291;BME280;41155;39.768;2.712;2023-05-09T10:57:27;101429.44;;;27.44;31.80
55291;BME280;41155;39.768;2.712;2023-05-09T10:59:54;101424.56;;;27.53;32.20
55291;BME280;41155;39.768;2.712;2023-05-09T11:02:19;101423.78;;;27.53;31.86
55291;BME280;41155;39.768;2.712;2023-05-09T11:04:45;101417.44;;;27.40;32.23
55291;BME280;41155;39.768;2.712;2023-05-09T11:07:37;101407.94;;;27.53;31.67
55291;BME280;41155;39.768;2.712;2023-05-09T11:10:25;101408.84;;;27.69;32.32
55291;BME280;41155;39.768;2.712;2023-05-09T11:12:58;101401.50;;;27.89;31.69
55291;BME280;41155;39.768;2.712;2023-05-09T11:15:24;101404.94;;;27.99;31.55
55291;BME280;41155;39.768;2.712;2023-05-09T11:18:11;101408.22;;;28.16;31.53
55291;BME280;41155;39.768;2.712;2023-05-09T11:20:44;101410.75;;;28.37;31.27
55291;BME280;41155;39.768;2.712;2023-05-09T11:23:10;101421.50;;;28.67;30.64
55291;BME280;41155;39.768;2.712;2023-05-09T11:25:38;101418.19;;;28.77;30.77
55291;BME280;41155;39.768;2.712;2023-05-09T11:28:04;101393.53;;;28.92;30.54
55291;BME280;41155;39.768;2.712;2023-05-09T11:30:42;101398.91;;;29.16;30.10
55291;BME280;41155;39.768;2.712;2023-05-09T11:33:26;101410.16;;;29.39;29.76
55291;BME280;41155;39.768;2.712;2023-05-09T11:38:40;101365.75;;;29.62;28.62
55291;BME280;41155;39.768;2.712;2023-05-09T11:41:07;101389.06;;;29.73;28.96
55291;BME280;41155;39.768;2.712;2023-05-09T11:43:35;101381.72;;;29.85;28.47
55291;BME280;41155;39.768;2.712;2023-05-09T11:46:02;101368.19;;;29.64;28.54
55291;BME280;41155;39.768;2.712;2023-05-09T11:48:27;101359.34;;;29.78;28.46
55291;BME280;41155;39.768;2.712;2023-05-09T11:50:53;101377.53;;;30.14;27.71
55291;BME280;41155;39.768;2.712;2023-05-09T11:53:18;101373.44;;;30.27;27.86
55291;BME280;41155;39.768;2.712;2023-05-09T11:55:44;101378.94;;;30.24;27.29
55291;BME280;41155;39.768;2.712;2023-05-09T11:58:13;101384.72;;;29.57;27.57
55291;BME280;41155;39.768;2.712;2023-05-09T12:00:45;101378.41;;;29.24;27.08
55291;BME280;41155;39.768;2.712;2023-05-09T12:03:11;101385.25;;;28.95;27.68
55291;BME280;41155;39.768;2.712;2023-05-09T12:05:36;101395.69;;;28.23;28.76
55291;BME280;41155;39.768;2.712;2023-05-09T12:08:05;101383.88;;;28.26;29.54
55291;BME280;41155;39.768;2.712;2023-05-09T12:10:31;101384.06;;;28.33;29.46
55291;BME280;41155;39.768;2.712;2023-05-09T12:12:56;101385.69;;;28.34;28.53
55291;BME280;41155;39.768;2.712;2023-05-09T12:15:22;101376.88;;;28.76;28.81
55291;BME280;41155;39.768;2.712;2023-05-09T12:18:07;101385.22;;;28.32;29.62
55291;BME280;41155;39.768;2.712;2023-05-09T12:20:44;101353.97;;;28.35;29.83
55291;BME280;41155;39.768;2.712;2023-05-09T12:23:11;101377.72;;;28.32;29.86
55291;BME280;41155;39.768;2.712;2023-05-09T12:25:45;101366.00;;;27.55;29.80
55291;BME280;41155;39.768;2.712;2023-05-09T12:28:11;101361.81;;;27.61;30.45
55291;BME280;41155;39.768;2.712;2023-05-09T12:30:37;101361.91;;;27.64;31.15
55291;BME280;41155;39.768;2.712;2023-05-09T12:33:03;101316.06;;;27.55;30.72
55291;BME280;41155;39.768;2.712;2023-05-09T12:35:28;101375.03;;;27.92;30.13
55291;BME280;41155;39.768;2.712;2023-05-09T12:37:55;101370.47;;;27.71;30.50
55291;BME280;41155;39.768;2.712;2023-05-09T12:40:22;101365.59;;;27.81;30.46
55291;BME280;41155;39.768;2.712;2023-05-09T12:42:47;101352.00;;;27.91;30.88
55291;BME280;41155;39.768;2.712;2023-05-09T12:45:13;101347.56;;;27.75;31.32
55291;BME280;41155;39.768;2.712;2023-05-09T12:47:39;101347.28;;;27.52;32.25
55291;BME280;41155;39.768;2.712;2023-05-09T12:50:06;101340.34;;;27.58;32.44
55291;BME280;41155;39.768;2.712;2023-05-09T12:52:39;101343.91;;;27.58;32.66
55291;BME280;41155;39.768;2.712;2023-05-09T12:55:12;101336.69;;;27.69;32.04
55291;BME280;41155;39.768;2.712;2023-05-09T12:57:39;101330.81;;;27.31;33.50
55291;BME280;41155;39.768;2.712;2023-05-09T13:00:06;101350.34;;;27.34;33.45
55291;BME280;41155;39.768;2.712;2023-05-09T13:02:34;101332.44;;;27.19;34.07
55291;BME280;41155;39.768;2.712;2023-05-09T13:05:05;101336.25;;;27.15;33.95
55291;BME280;41155;39.768;2.712;2023-05-09T13:07:44;101338.91;;;27.11;34.61